Time;durP1;ratioP1;P1;durP2;ratioP2;P2;SDS_P1;SDS_P2;PMS_P1;PMS_P2;Temp;Humidity;BMP_temperature;BMP_pressure;BME280_temperature;BME280_humidity;BME280_pressure;Samples;Min_cycle;Max_cycle;Signal;HPM_P1;HPM_P2
2021/03/18 00:03:30;;;;;;;13.63;10.82;;;;;;;4.58;66.22;93102.38;4879752;28;20061;-89
2021/03/18 00:06:14;;;;;;;20.15;11.60;;;;;;;4.13;66.16;93037.16;4901147;28;20496;-88
2021/03/18 00:09:19;;;;;;;13.15;10.25;;;;;;;4.23;65.70;93052.81;4844983;28;20536;-89
2021/03/18 00:11:59;;;;;;;11.25;9.18;;;;;;;4.23;65.65;93074.50;4897485;29;20080;-87
2021/03/18 00:14:42;;;;;;;11.82;9.63;;;;;;;4.41;66.33;93116.81;4887717;28;20174;-89
2021/03/18 00:17:25;;;;;;;15.13;11.88;;;;;;;4.43;66.84;93118.13;4847235;28;20149;-87
2021/03/18 00:20:06;;;;;;;14.48;11.93;;;;;;;4.11;66.44;93057.53;4810901;29;20116;-90
2021/03/18 00:22:41;;;;;;;16.35;11.60;;;;;;;4.46;66.16;93108.94;4868280;28;20126;-92
2021/03/18 00:25:19;;;;;;;17.75;13.18;;;;;;;4.00;66.17;93050.78;4881378;28;20113;-89
2021/03/18 00:27:57;;;;;;;20.05;13.85;;;;;;;4.53;66.95;93112.84;4941198;28;20049;-89
2021/03/18 00:30:48;;;;;;;24.67;15.85;;;;;;;4.39;66.12;93084.91;4945378;28;20058;-88
2021/03/18 00:33:18;;;;;;;31.70;18.17;;;;;;;4.51;66.36;93091.41;4857737;28;20128;-90
2021/03/18 00:35:47;;;;;;;33.85;17.70;;;;;;;4.29;65.84;93056.97;4947979;28;20181;-88
2021/03/18 00:38:16;;;;;;;22.38;14.65;;;;;;;4.66;65.35;93101.81;4949773;28;20057;-88
2021/03/18 00:40:51;;;;;;;26.13;15.80;;;;;;;4.29;64.40;93059.59;4940826;28;20604;-88
2021/03/18 00:43:34;;;;;;;13.60;10.93;;;;;;;4.27;64.79;93051.22;4958308;28;20062;-88
2021/03/18 00:46:06;;;;;;;15.50;11.05;;;;;;;4.16;65.07;93034.78;4937015;28;20096;-88
2021/03/18 00:48:54;;;;;;;14.82;10.88;;;;;;;4.23;65.61;93043.13;4951797;28;20038;-89
2021/03/18 00:51:31;;;;;;;14.15;10.43;;;;;;;4.64;64.88;93101.28;4930089;28;20047;-89
2021/03/18 00:54:15;;;;;;;14.63;10.45;;;;;;;4.66;64.26;93099.19;4909015;28;20508;-91
2021/03/18 00:56:41;;;;;;;27.70;16.75;;;;;;;4.29;64.37;93067.44;4904290;28;20480;-89
2021/03/18 00:59:27;;;;;;;20.05;13.70;;;;;;;4.02;64.55;93033.00;4932667;28;20138;-88
2021/03/18 01:01:55;;;;;;;16.40;12.30;;;;;;;4.56;64.69;93099.22;4950612;28;20050;-91
2021/03/18 01:04:21;;;;;;;12.48;10.43;;;;;;;4.52;64.12;93097.41;4964083;28;20045;-87
2021/03/18 01:06:46;;;;;;;16.63;11.63;;;;;;;4.29;64.35;93055.13;4955933;28;20042;-90
2021/03/18 01:09:15;;;;;;;16.45;11.75;;;;;;;4.11;64.73;93034.00;4881820;28;20046;-88
2021/03/18 01:11:42;;;;;;;15.30;11.73;;;;;;;4.07;64.96;93032.97;4866858;28;20552;-87
2021/03/18 01:14:11;;;;;;;13.65;10.77;;;;;;;4.36;64.94;93075.75;4946415;28;20062;-87
2021/03/18 01:16:49;;;;;;;19.40;12.60;;;;;;;4.18;65.01;93050.97;4958099;28;20059;-87
2021/03/18 01:19:16;;;;;;;14.23;11.30;;;;;;;4.36;64.59;93092.25;4956707;28;20158;-94
2021/03/18 01:21:46;;;;;;;22.25;15.02;;;;;;;3.97;65.32;93025.16;4968768;28;20034;-87
2021/03/18 01:24:13;;;;;;;22.20;14.00;;;;;;;4.01;63.90;93036.69;4959900;28;20043;-89
2021/03/18 01:26:49;;;;;;;14.43;11.00;;;;;;;4.35;64.13;93108.19;4937219;28;21142;-88
2021/03/18 01:29:24;;;;;;;16.02;12.00;;;;;;;4.02;64.00;93035.59;4878594;28;20826;-89
2021/03/18 01:31:53;;;;;;;17.55;11.25;;;;;;;4.02;64.18;93039.00;4903299;28;20726;-90
2021/03/18 01:34:18;;;;;;;15.15;11.65;;;;;;;4.26;64.49;93067.94;4912997;28;20483;-88
2021/03/18 01:36:55;;;;;;;15.18;12.15;;;;;;;4.00;64.32;93022.81;4944646;28;20041;-91
2021/03/18 01:39:34;;;;;;;16.05;12.60;;;;;;;4.07;64.31;93038.19;4912766;28;20070;-88
2021/03/18 01:42:00;;;;;;;14.65;11.30;;;;;;;4.28;63.94;93071.09;4931115;28;20046;-89
2021/03/18 01:44:26;;;;;;;18.35;12.05;;;;;;;4.06;63.81;93041.84;4950976;28;20052;-88
2021/03/18 01:46:51;;;;;;;23.40;15.57;;;;;;;4.11;65.02;93036.63;4936398;28;20053;-88
2021/03/18 01:49:26;;;;;;;25.88;17.27;;;;;;;4.52;63.50;93098.19;4959147;28;20047;-90
2021/03/18 01:51:59;;;;;;;17.95;14.05;;;;;;;4.18;63.49;93065.88;4963708;28;20575;-88
2021/03/18 01:54:50;;;;;;;15.40;12.02;;;;;;;4.26;63.55;93073.19;4968400;28;20416;-87
2021/03/18 01:57:26;;;;;;;19.15;14.18;;;;;;;4.01;63.68;93023.59;4952414;28;20035;-88
2021/03/18 01:59:55;;;;;;;17.25;12.82;;;;;;;4.50;64.02;93109.97;4844933;28;20131;-87
2021/03/18 02:02:24;;;;;;;18.33;13.95;;;;;;;4.21;64.33;93062.72;4924541;28;20098;-87
2021/03/18 02:04:50;;;;;;;15.77;13.00;;;;;;;4.45;63.74;93094.31;4922538;28;20058;-88
2021/03/18 02:07:31;;;;;;;13.30;11.23;;;;;;;4.36;64.38;93089.63;4942245;28;20042;-88
2021/03/18 02:09:57;;;;;;;15.95;11.63;;;;;;;4.32;64.88;93098.28;4928496;28;20043;-88
2021/03/18 02:12:22;;;;;;;16.20;11.25;;;;;;;4.33;64.83;93094.63;4953816;28;20038;-89
2021/03/18 02:14:53;;;;;;;14.10;11.65;;;;;;;4.35;64.81;93100.34;4954847;28;20074;-88
2021/03/18 02:17:28;;;;;;;14.95;11.52;;;;;;;4.36;64.33;93115.00;4944669;28;20120;-87
2021/03/18 02:20:15;;;;;;;14.77;11.73;;;;;;;4.50;64.37;93134.31;4954901;28;20070;-87
2021/03/18 02:23:06;;;;;;;13.45;11.27;;;;;;;4.39;64.92;93130.16;4964002;28;20097;-87
2021/03/18 02:25:42;;;;;;;16.85;11.95;;;;;;;3.93;64.61;93075.38;4952279;28;20043;-87
2021/03/18 02:28:26;;;;;;;14.27;11.50;;;;;;;4.37;64.50;93137.50;4953417;28;20562;-87
2021/03/18 02:31:31;;;;;;;14.70;11.52;;;;;;;4.39;64.80;93143.25;4953870;28;20186;-88
2021/03/18 02:34:13;;;;;;;12.88;10.70;;;;;;;4.39;64.11;93135.41;4860090;28;20055;-88
2021/03/18 02:37:05;;;;;;;15.63;10.85;;;;;;;4.01;64.30;93086.34;4916258;28;20892;-87
2021/03/18 02:40:04;;;;;;;15.38;10.32;;;;;;;4.40;64.22;93134.34;4918244;29;20143;-88
2021/03/18 02:42:33;;;;;;;13.38;10.55;;;;;;;4.47;63.98;93134.06;4891666;28;20051;-88
2021/03/18 02:45:08;;;;;;;13.10;10.95;;;;;;;4.34;64.95;93130.19;4933678;28;20138;-90
2021/03/18 02:48:01;;;;;;;13.40;10.23;;;;;;;4.03;64.10;93069.34;4934163;28;20666;-88
2021/03/18 02:50:33;;;;;;;14.18;11.02;;;;;;;4.02;63.68;93074.81;4895423;28;20608;-88
2021/03/18 02:53:01;;;;;;;13.55;10.77;;;;;;;4.23;64.17;93105.09;4926794;28;20055;-87
2021/03/18 02:55:30;;;;;;;13.27;10.55;;;;;;;4.15;63.72;93093.38;4920763;28;20043;-87
2021/03/18 02:57:57;;;;;;;14.63;10.90;;;;;;;4.22;64.12;93108.75;4931993;28;20034;-87
2021/03/18 03:00:27;;;;;;;10.80;9.02;;;;;;;3.76;62.40;93051.34;4927212;28;20507;-86
2021/03/18 03:03:11;;;;;;;12.32;10.15;;;;;;;3.89;63.21;93073.56;4935465;28;20476;-88
2021/03/18 03:05:41;;;;;;;12.55;9.68;;;;;;;3.96;63.18;93073.28;4931911;28;20263;-89
2021/03/18 03:08:40;;;;;;;;;;;;;;;;;;;;;
2021/03/18 03:11:39;;;;;;;13.95;10.18;;;;;;;4.40;62.69;93126.47;4937160;28;20054;-88
2021/03/18 03:14:12;;;;;;;14.05;10.50;;;;;;;4.15;62.64;93087.34;4889149;28;20059;-90
2021/03/18 03:16:56;;;;;;;11.15;8.93;;;;;;;3.89;62.36;93066.50;4917501;28;20047;-88
2021/03/18 03:19:33;;;;;;;12.50;9.70;;;;;;;4.23;64.04;93128.63;4909016;28;20801;-88
2021/03/18 03:22:02;;;;;;;11.85;9.80;;;;;;;3.92;64.23;93073.00;4906525;28;20039;-87
2021/03/18 03:24:29;;;;;;;13.25;9.65;;;;;;;4.14;64.70;93104.09;4920436;28;20278;-91
2021/03/18 03:27:02;;;;;;;13.52;10.00;;;;;;;3.93;66.09;93096.28;4905786;28;20171;-87
2021/03/18 03:29:29;;;;;;;12.48;10.32;;;;;;;3.79;66.52;93082.19;4931820;28;20085;-87
2021/03/18 03:31:56;;;;;;;13.13;10.30;;;;;;;4.25;66.40;93160.56;4938026;28;20642;-87
2021/03/18 03:34:25;;;;;;;12.88;9.77;;;;;;;4.07;67.57;93121.88;4952079;28;20050;-88
2021/03/18 03:36:54;;;;;;;13.93;10.63;;;;;;;3.86;66.89;93110.69;4953491;28;20334;-88
2021/03/18 03:39:21;;;;;;;13.65;10.75;;;;;;;3.88;67.80;93113.78;4956965;28;20100;-87
2021/03/18 03:41:47;;;;;;;13.57;9.80;;;;;;;4.25;66.93;93160.56;4899375;28;20059;-86
2021/03/18 03:44:27;;;;;;;15.88;10.75;;;;;;;4.24;66.21;93153.75;4953132;28;20097;-87
2021/03/18 03:46:55;;;;;;;10.13;8.82;;;;;;;4.10;65.63;93142.28;4927274;28;20060;-86
2021/03/18 03:49:23;;;;;;;10.18;8.88;;;;;;;3.89;65.44;93116.16;4946190;28;20049;-87
2021/03/18 03:52:34;;;;;;;12.95;9.40;;;;;;;4.23;65.77;93163.41;4957900;28;20047;-92
2021/03/18 03:55:36;;;;;;;12.68;9.85;;;;;;;3.94;65.65;93117.97;4923340;28;20122;-87
2021/03/18 03:58:23;;;;;;;11.40;8.75;;;;;;;4.06;64.29;93146.44;4849952;28;20044;-87
2021/03/18 04:01:01;;;;;;;18.10;11.45;;;;;;;3.65;63.94;93109.91;4893621;29;20043;-88
2021/03/18 04:03:38;;;;;;;13.57;10.15;;;;;;;4.10;63.97;93160.56;4817745;29;20062;-88
2021/03/18 04:06:14;;;;;;;14.70;11.13;;;;;;;4.06;64.57;93162.13;4908887;28;20597;-87
2021/03/18 04:08:46;;;;;;;15.73;11.60;;;;;;;3.89;64.59;93150.13;4892057;29;20055;-89
2021/03/18 04:11:21;;;;;;;16.35;11.77;;;;;;;3.86;64.17;93139.44;4868549;28;20052;-88
2021/03/18 04:14:11;;;;;;;;;;;;;;;4.03;64.94;93162.66;4869060;28;20144;-90
2021/03/18 04:16:39;;;;;;;13.80;10.75;;;;;;;3.99;64.62;93161.63;4874923;29;19934;-89
2021/03/18 04:19:10;;;;;;;15.02;9.77;;;;;;;4.04;63.82;93159.78;4910861;28;20849;-92
2021/03/18 04:21:39;;;;;;;15.07;10.52;;;;;;;4.07;63.69;93174.94;4960053;28;20056;-87
2021/03/18 04:24:10;;;;;;;14.73;10.75;;;;;;;3.93;64.10;93158.22;4906761;28;20050;-86
2021/03/18 04:26:41;;;;;;;13.15;9.70;;;;;;;4.08;64.51;93175.72;4954130;28;20067;-86
2021/03/18 04:29:09;;;;;;;12.70;9.70;;;;;;;4.10;64.58;93163.19;4945889;28;20492;-86
2021/03/18 04:31:55;;;;;;;10.68;8.85;;;;;;;3.98;64.13;93155.59;4954057;28;20046;-85
2021/03/18 04:34:21;;;;;;;15.00;11.13;;;;;;;3.68;64.56;93106.75;4957645;28;20429;-87
2021/03/18 04:36:47;;;;;;;15.32;10.48;;;;;;;4.11;64.74;93177.81;4956175;28;20125;-86
2021/03/18 04:39:15;;;;;;;13.18;11.30;;;;;;;3.90;64.88;93128.19;4956491;28;20049;-86
2021/03/18 04:41:51;;;;;;;14.93;11.13;;;;;;;4.12;66.11;93182.00;4954072;28;20047;-86
2021/03/18 04:44:18;;;;;;;12.70;10.02;;;;;;;4.06;66.40;93156.91;4950573;28;20050;-86
2021/03/18 04:46:47;;;;;;;12.40;10.60;;;;;;;4.03;66.41;93165.28;4918666;28;20099;-86
2021/03/18 04:49:15;;;;;;;14.55;10.52;;;;;;;4.15;66.39;93186.72;4941403;28;20556;-86
2021/03/18 04:51:46;;;;;;;12.95;9.77;;;;;;;4.00;66.28;93152.75;4955059;28;20118;-86
2021/03/18 04:54:12;;;;;;;12.20;9.68;;;;;;;4.04;66.40;93172.88;4947579;28;20050;-86
2021/03/18 04:56:44;;;;;;;13.05;9.90;;;;;;;3.77;66.12;93138.38;4940247;28;20542;-86
2021/03/18 04:59:16;;;;;;;10.75;8.80;;;;;;;3.72;67.20;93139.16;4951242;28;20054;-88
2021/03/18 05:01:48;;;;;;;13.90;10.73;;;;;;;4.17;68.01;93190.63;4967460;28;20097;-87
2021/03/18 05:04:19;;;;;;;16.45;11.45;;;;;;;3.96;66.41;93167.38;4963598;28;20145;-86
2021/03/18 05:06:57;;;;;;;13.65;11.13;;;;;;;4.09;66.28;93185.16;4953867;28;20060;-87
2021/03/18 05:09:27;;;;;;;16.10;12.10;;;;;;;3.95;65.27;93160.59;4879681;28;20289;-88
2021/03/18 05:12:03;;;;;;;14.27;9.93;;;;;;;4.05;65.93;93176.25;4947893;28;20650;-87
2021/03/18 05:14:29;;;;;;;15.45;11.30;;;;;;;4.12;66.75;93182.78;4942039;28;20080;-86
2021/03/18 05:16:58;;;;;;;15.43;10.32;;;;;;;4.22;66.07;93174.13;4943896;28;20500;-87
2021/03/18 05:19:44;;;;;;;22.38;14.30;;;;;;;4.51;65.15;93216.19;4938748;28;20175;-88
2021/03/18 05:22:12;;;;;;;15.63;11.65;;;;;;;4.23;64.97;93184.34;4945488;28;20122;-83
2021/03/18 05:24:40;;;;;;;16.85;11.48;;;;;;;4.29;65.01;93213.91;4968232;28;20035;-86
2021/03/18 05:27:09;;;;;;;16.52;12.13;;;;;;;3.96;64.29;93154.31;4949273;28;20049;-86
2021/03/18 05:29:35;;;;;;;14.75;10.50;;;;;;;4.26;64.53;93214.41;4949426;28;20058;-86
2021/03/18 05:32:07;;;;;;;14.82;10.63;;;;;;;4.49;64.32;93213.88;4924977;28;20043;-86
2021/03/18 05:34:47;;;;;;;14.57;10.05;;;;;;;4.49;62.67;93194.75;4946784;28;20185;-87
2021/03/18 05:37:13;;;;;;;13.40;9.43;;;;;;;4.47;61.81;93202.09;4941820;28;20164;-86
2021/03/18 05:39:52;;;;;;;13.10;10.32;;;;;;;4.39;61.46;93172.03;4948598;28;20480;-86
2021/03/18 05:42:24;;;;;;;13.88;10.45;;;;;;;4.64;60.83;93197.34;4963974;28;20039;-91
2021/03/18 05:44:59;;;;;;;12.95;10.32;;;;;;;4.61;60.76;93164.63;4921550;28;20586;-86
2021/03/18 05:47:29;;;;;;;14.93;11.50;;;;;;;4.92;60.76;93207.19;4947848;28;20047;-85
2021/03/18 05:49:57;;;;;;;14.15;10.48;;;;;;;4.82;59.62;93177.66;4897915;28;20113;-86
2021/03/18 05:52:27;;;;;;;12.93;10.63;;;;;;;5.15;59.23;93216.25;4942582;28;20373;-88
2021/03/18 05:55:07;;;;;;;13.70;10.68;;;;;;;5.18;60.25;93247.16;4946255;28;20046;-86
2021/03/18 05:57:34;;;;;;;12.48;10.52;;;;;;;4.79;60.63;93182.34;4904602;28;20031;-86
2021/03/18 06:00:02;;;;;;;12.65;9.65;;;;;;;5.28;60.85;93241.88;4946184;28;20062;-89
2021/03/18 06:02:47;;;;;;;14.10;10.40;;;;;;;5.20;61.06;93245.84;4959763;28;20103;-86
2021/03/18 06:05:19;;;;;;;14.05;9.93;;;;;;;5.10;61.56;93226.75;4879557;28;20517;-90
2021/03/18 06:07:47;;;;;;;12.63;9.02;;;;;;;4.78;61.97;93196.50;4957496;28;20051;-86
2021/03/18 06:10:25;;;;;;;15.02;10.55;;;;;;;4.97;62.08;93233.34;4916033;28;20060;-87
2021/03/18 06:12:57;;;;;;;13.98;11.52;;;;;;;5.16;62.33;93254.50;4928433;28;20027;-88
2021/03/18 06:15:23;;;;;;;13.70;10.68;;;;;;;5.07;62.15;93240.41;4951484;28;20097;-86
2021/03/18 06:17:49;;;;;;;12.52;8.50;;;;;;;5.10;61.37;93264.22;4904540;28;20046;-89
2021/03/18 06:20:20;;;;;;;10.52;8.77;;;;;;;5.16;60.98;93262.34;4951878;28;20065;-86
2021/03/18 06:22:53;;;;;;;14.88;9.73;;;;;;;5.24;61.07;93246.06;4921069;28;20055;-89
2021/03/18 06:25:31;;;;;;;10.93;8.82;;;;;;;5.61;60.38;93264.00;4949601;28;20523;-90
2021/03/18 06:28:13;;;;;;;9.27;7.60;;;;;;;5.81;59.16;93260.47;4959667;28;20038;-87
2021/03/18 06:31:02;;;;;;;11.48;8.85;;;;;;;5.77;59.06;93213.03;4929683;28;20038;-91
2021/03/18 06:34:00;;;;;;;8.40;7.10;;;;;;;6.04;56.95;93202.91;4923713;28;20567;-88
2021/03/18 06:36:47;;;;;;;11.30;8.73;;;;;;;6.55;57.25;93259.44;4893042;28;20047;-88
2021/03/18 06:39:20;;;;;;;9.90;7.88;;;;;;;6.41;55.82;93201.53;4938007;28;20042;-88
2021/03/18 06:42:02;;;;;;;8.07;6.00;;;;;;;6.78;54.42;93269.97;4951980;28;20050;-86
2021/03/18 06:44:33;;;;;;;7.25;6.43;;;;;;;6.67;54.31;93267.72;4952407;28;20077;-87
2021/03/18 06:47:10;;;;;;;7.97;6.55;;;;;;;6.87;54.99;93278.03;4935430;28;20062;-85
2021/03/18 06:49:38;;;;;;;8.15;6.72;;;;;;;6.66;52.98;93255.63;4946718;28;20051;-86
2021/03/18 06:52:05;;;;;;;7.75;6.60;;;;;;;6.66;53.18;93235.41;4938450;28;21125;-86
2021/03/18 06:54:54;;;;;;;8.27;6.40;;;;;;;6.64;51.96;93213.91;4956646;28;20031;-86
2021/03/18 06:57:20;;;;;;;9.48;7.45;;;;;;;6.87;51.82;93226.28;4949644;28;20105;-87
2021/03/18 06:59:45;;;;;;;9.30;8.30;;;;;;;7.02;52.56;93243.72;4950774;28;20303;-86
2021/03/18 07:02:13;;;;;;;10.15;7.68;;;;;;;7.05;51.17;93232.66;4951340;28;20060;-86
2021/03/18 07:04:53;;;;;;;7.68;5.97;;;;;;;6.84;50.63;93276.72;4949575;28;20092;-85
2021/03/18 07:07:20;;;;;;;9.82;6.95;;;;;;;6.51;51.26;93236.34;4972802;28;20175;-86
2021/03/18 07:09:50;;;;;;;10.93;9.27;;;;;;;6.49;52.44;93235.06;4950661;28;20125;-87
2021/03/18 07:12:24;;;;;;;8.57;7.55;;;;;;;6.95;51.33;93282.66;4951300;28;20522;-85
2021/03/18 07:14:52;;;;;;;12.70;9.90;;;;;;;7.06;51.62;93257.06;4853407;28;20505;-90
2021/03/18 07:17:44;;;;;;;11.45;8.52;;;;;;;7.52;50.20;93270.47;4936903;28;20046;-85
2021/03/18 07:20:22;;;;;;;18.73;13.95;;;;;;;7.77;48.67;93220.94;4957773;28;20054;-85
2021/03/18 07:22:52;;;;;;;7.28;6.22;;;;;;;8.35;47.85;93290.94;4898461;28;20052;-88
2021/03/18 07:25:46;;;;;;;7.15;6.40;;;;;;;8.49;46.88;93260.19;4908720;28;20058;-89
2021/03/18 07:28:25;;;;;;;16.15;12.65;;;;;;;9.48;45.66;93277.09;4929075;28;20118;-87
2021/03/18 07:30:51;;;;;;;12.68;8.50;;;;;;;9.77;43.66;93247.78;4979597;28;20483;-86
2021/03/18 07:33:19;;;;;;;16.42;10.88;;;;;;;10.13;43.45;93282.06;4907007;28;20069;-82
2021/03/18 07:35:51;;;;;;;13.43;9.48;;;;;;;10.25;42.34;93224.28;4915088;28;20064;-87
2021/03/18 07:38:17;;;;;;;17.00;10.05;;;;;;;11.22;42.39;93264.94;4962473;28;20133;-87
2021/03/18 07:40:50;;;;;;;10.80;7.82;;;;;;;11.30;41.96;93280.06;4963323;28;20440;-94
2021/03/18 07:43:24;;;;;;;15.10;9.63;;;;;;;11.62;41.44;93266.50;4916717;28;20531;-87
2021/03/18 07:46:27;;;;;;;12.25;7.88;;;;;;;12.16;39.27;93256.50;4959097;28;20090;-87
2021/03/18 07:49:29;;;;;;;16.73;10.27;;;;;;;11.83;39.40;93258.00;4883267;28;20055;-90
2021/03/18 07:52:04;;;;;;;23.67;13.82;;;;;;;12.30;39.01;93257.13;4934758;28;20469;-84
2021/03/18 07:55:06;;;;;;;15.63;9.43;;;;;;;13.18;37.78;93238.94;4905972;28;20089;-86
2021/03/18 07:57:49;;;;;;;18.50;13.07;;;;;;;13.92;36.44;93278.25;4947315;28;20675;-85
2021/03/18 08:00:26;;;;;;;18.75;13.25;;;;;;;13.75;36.76;93241.16;4968540;28;20053;-85
2021/03/18 08:03:15;;;;;;;18.45;13.77;;;;;;;14.58;35.20;93243.88;4935259;28;20042;-85
2021/03/18 08:05:43;;;;;;;13.98;10.70;;;;;;;14.73;35.36;93281.28;4938258;28;20047;-89
2021/03/18 08:08:39;;;;;;;13.32;9.32;;;;;;;14.64;34.44;93223.97;4879652;28;20086;-88
2021/03/18 08:11:35;;;;;;;14.43;9.90;;;;;;;14.72;35.13;93260.34;4930937;28;20047;-86
2021/03/18 08:14:24;;;;;;;25.83;15.40;;;;;;;14.66;35.50;93280.28;4968718;28;20053;-88
2021/03/18 08:16:56;;;;;;;43.30;22.42;;;;;;;13.97;36.33;93267.44;4829172;28;20128;-86
2021/03/18 08:19:22;;;;;;;30.35;17.33;;;;;;;13.86;36.33;93263.59;4913102;28;20480;-85
2021/03/18 08:21:54;;;;;;;28.58;15.90;;;;;;;13.79;36.44;93290.66;4956621;28;20082;-84
2021/03/18 08:24:32;;;;;;;27.70;14.70;;;;;;;12.13;39.05;93265.84;4957815;28;20046;-84
2021/03/18 08:27:09;;;;;;;8.05;6.25;;;;;;;11.12;42.18;93271.28;4928927;28;20511;-87
2021/03/18 08:29:45;;;;;;;10.45;7.38;;;;;;;11.13;41.77;93245.63;4928645;28;20071;-86
2021/03/18 08:32:12;;;;;;;59.08;28.27;;;;;;;12.35;41.91;93302.03;4948976;28;20105;-82
2021/03/18 08:35:01;;;;;;;41.13;18.80;;;;;;;13.42;39.09;93300.19;4955745;28;20094;-82
2021/03/18 08:37:38;;;;;;;40.80;20.85;;;;;;;14.56;36.77;93297.38;4949993;28;20047;-84
2021/03/18 08:40:11;;;;;;;29.15;17.17;;;;;;;14.23;35.42;93293.84;4929340;28;20057;-85
2021/03/18 08:45:53;;;;;;;9.63;6.63;;;;;;;14.87;34.77;93243.78;4850288;29;20045;-84
2021/03/18 08:48:36;;;;;;;29.25;16.15;;;;;;;14.98;34.29;93233.50;4847422;29;20052;-86
2021/03/18 08:51:05;;;;;;;26.17;17.35;;;;;;;15.23;34.24;93250.28;4896865;28;20050;-85
2021/03/18 08:53:35;;;;;;;31.85;20.02;;;;;;;15.38;35.28;93260.31;4939724;28;20381;-83
2021/03/18 08:56:01;;;;;;;21.15;13.95;;;;;;;15.58;34.42;93267.47;4952119;28;20047;-84
2021/03/18 08:58:53;;;;;;;13.30;10.23;;;;;;;15.35;33.20;93267.06;4906387;28;20064;-85
2021/03/18 09:01:22;;;;;;;21.38;15.70;;;;;;;15.18;33.48;93236.09;4889204;28;20154;-85
2021/03/18 09:03:56;;;;;;;22.17;16.13;;;;;;;15.15;32.83;93244.72;4923676;28;20035;-85
2021/03/18 09:06:27;;;;;;;37.55;25.20;;;;;;;15.29;34.49;93238.34;4915842;28;20043;-89
2021/03/18 09:09:02;;;;;;;8.50;6.53;;;;;;;15.25;33.13;93237.44;4879656;28;20411;-85
2021/03/18 09:11:31;;;;;;;;;;;;;;;14.54;34.14;93288.97;4959168;28;20046;-84
2021/03/18 09:13:59;;;;;;;21.48;16.58;;;;;;;14.67;35.70;93277.28;4956598;28;19914;-86
2021/03/18 09:16:31;;;;;;;10.57;8.05;;;;;;;14.34;34.69;93297.69;4936765;28;20095;-85
2021/03/18 09:19:07;;;;;;;30.17;17.50;;;;;;;14.05;35.45;93301.16;4951319;28;20125;-86
2021/03/18 09:21:48;;;;;;;24.42;16.40;;;;;;;14.49;35.06;93281.19;4961064;28;20065;-84
2021/03/18 09:24:14;;;;;;;13.77;10.48;;;;;;;15.24;34.92;93295.22;4956212;28;20136;-84
2021/03/18 09:26:45;;;;;;;27.80;17.58;;;;;;;15.76;33.22;93289.31;4913544;28;20968;-91
2021/03/18 09:29:20;;;;;;;;;;;;;;;;;;;;;
2021/03/18 09:32:00;;;;;;;24.55;15.55;;;;;;;15.48;34.65;93305.16;4905540;28;20045;-85
2021/03/18 09:34:43;;;;;;;35.97;24.42;;;;;;;14.86;34.31;93268.81;4914904;28;20134;-89
2021/03/18 09:37:35;;;;;;;19.52;13.98;;;;;;;14.92;35.58;93320.72;4929027;28;20700;-84
2021/03/18 09:40:40;;;;;;;31.35;21.30;;;;;;;14.88;34.85;93281.78;4888453;28;20042;-87
2021/03/18 09:43:09;;;;;;;25.23;16.30;;;;;;;14.79;35.43;93254.50;4935669;28;20085;-85
2021/03/18 09:45:35;;;;;;;47.03;30.08;;;;;;;15.10;36.07;93297.41;4949412;28;20547;-86
2021/03/18 09:48:01;;;;;;;11.85;9.88;;;;;;;15.15;35.75;93308.59;4926622;28;20594;-93
2021/03/18 09:50:53;;;;;;;9.85;8.02;;;;;;;14.36;37.23;93276.09;4937344;28;20042;-85
2021/03/18 09:53:19;;;;;;;21.42;15.52;;;;;;;13.80;37.57;93280.81;4947122;28;20073;-83
2021/03/18 09:55:47;;;;;;;23.13;14.50;;;;;;;13.09;38.35;93274.50;4925513;28;20051;-86
2021/03/18 09:58:15;;;;;;;43.40;27.35;;;;;;;13.13;39.79;93342.56;4938144;28;20061;-85
2021/03/18 10:00:41;;;;;;;24.65;15.02;;;;;;;12.51;41.01;93305.75;4959503;28;20154;-84
2021/03/18 10:03:10;;;;;;;10.65;8.52;;;;;;;12.50;38.38;93324.63;4952827;28;20096;-85
2021/03/18 10:05:36;;;;;;;18.25;12.80;;;;;;;12.19;39.54;93306.19;4940166;28;20054;-84
2021/03/18 10:08:02;;;;;;;16.27;11.90;;;;;;;11.99;40.08;93318.16;4930936;28;20038;-83
2021/03/18 10:10:30;;;;;;;33.85;20.42;;;;;;;11.82;39.57;93291.66;4945868;28;20046;-86
2021/03/18 11:53:53;;;;;;;4.88;4.28;;;;;;;10.00;44.00;93333.06;4982119;23;20321;-85
2021/03/18 11:56:39;;;;;;;8.10;5.15;;;;;;;10.14;45.98;93359.44;4912294;28;20050;-86
2021/03/18 11:59:40;;;;;;;6.38;5.20;;;;;;;9.96;46.16;93367.19;4893688;28;20125;-87
2021/03/18 12:02:09;;;;;;;7.35;5.95;;;;;;;9.91;45.79;93334.84;4950441;28;20038;-87
2021/03/18 12:05:04;;;;;;;7.13;6.20;;;;;;;10.00;46.52;93314.56;4904491;28;20668;-85
2021/03/18 12:07:37;;;;;;;5.97;5.38;;;;;;;9.96;44.70;93303.84;4948919;28;20112;-85
2021/03/18 12:10:23;;;;;;;5.72;5.13;;;;;;;10.07;43.39;93345.88;4979159;28;20058;-86
2021/03/18 12:12:50;;;;;;;6.38;5.78;;;;;;;9.78;43.75;93349.56;4973604;28;20062;-87
2021/03/18 12:15:36;;;;;;;5.75;5.07;;;;;;;9.35;44.20;93324.56;4979341;28;20133;-86
2021/03/18 12:18:05;;;;;;;7.57;5.22;;;;;;;9.19;44.83;93308.22;4923181;28;20326;-86
2021/03/18 12:20:36;;;;;;;5.50;4.90;;;;;;;9.35;45.62;93340.38;4921922;28;20486;-87
2021/03/18 12:23:04;;;;;;;6.10;5.20;;;;;;;9.58;46.35;93369.22;4957335;28;20062;-87
2021/03/18 12:25:30;;;;;;;6.45;5.35;;;;;;;9.14;45.86;93324.13;4931771;28;20075;-84
2021/03/18 12:30:46;;;;;;;6.55;5.93;;;;;;;9.32;45.84;93315.38;4975367;28;20045;-86
2021/03/18 12:33:18;;;;;;;6.35;5.75;;;;;;;9.41;44.73;93342.66;4954345;28;20045;-87
2021/03/18 12:35:46;;;;;;;7.80;6.18;;;;;;;9.39;44.80;93341.34;4962845;28;20057;-86
2021/03/18 12:38:12;;;;;;;6.80;6.10;;;;;;;9.57;45.30;93374.81;4945792;28;20061;-87
2021/03/18 12:40:50;;;;;;;7.40;6.43;;;;;;;9.24;45.24;93320.53;4860691;28;20881;-85
2021/03/18 12:43:27;;;;;;;7.40;5.72;;;;;;;9.51;44.51;93375.97;4854707;28;20946;-86
2021/03/18 12:46:19;;;;;;;;;;;;;;;;;;;;;
2021/03/18 12:49:03;;;;;;;;;;;;;;;;;;;;;
2021/03/18 12:51:39;;;;;;;9.00;7.78;;;;;;;9.30;45.67;93335.19;4867142;28;20425;-84
2021/03/18 12:55:18;;;;;;;;;;;;;;;;;;;;;
2021/03/18 12:57:42;;;;;;;8.23;6.38;;;;;;;9.38;45.80;93327.38;4921401;28;20434;-84
2021/03/18 13:00:29;;;;;;;7.53;6.47;;;;;;;9.35;46.18;93335.09;4846211;28;20059;-84
2021/03/18 13:03:30;;;;;;;8.50;6.95;;;;;;;9.65;46.54;93376.75;4800096;28;20907;-84
2021/03/18 13:06:21;;;;;;;8.40;6.63;;;;;;;9.22;45.68;93333.25;4891348;28;20038;-84
2021/03/18 13:09:16;;;;;;;8.18;7.30;;;;;;;8.98;47.43;93357.09;4858459;28;20055;-84
2021/03/18 13:12:09;;;;;;;;;;;;;;;;;;;;;
2021/03/18 13:17:57;;;;;;;10.02;7.40;;;;;;;8.69;46.26;93362.56;4860387;28;20378;-84
2021/03/18 13:20:34;;;;;;;8.18;6.70;;;;;;;8.59;45.80;93354.81;4907180;28;20412;-83
2021/03/18 13:23:00;;;;;;;13.48;8.20;;;;;;;8.29;45.39;93353.38;4919450;28;20050;-83
2021/03/18 13:25:41;;;;;;;8.65;7.07;;;;;;;8.51;46.29;93369.41;4939202;28;20137;-85
2021/03/18 13:28:40;;;;;;;8.75;7.47;;;;;;;8.80;45.74;93402.69;4899119;28;20049;-87
2021/03/18 13:31:14;;;;;;;10.63;7.40;;;;;;;8.49;46.30;93391.84;4909013;28;20751;-89
2021/03/18 13:33:42;;;;;;;8.53;7.13;;;;;;;8.28;46.77;93365.75;4946633;28;20081;-85
2021/03/18 13:36:21;;;;;;;8.80;7.63;;;;;;;8.57;46.41;93425.44;4945037;28;20524;-84
2021/03/18 13:39:10;;;;;;;8.55;7.65;;;;;;;8.19;46.73;93388.53;4935040;28;20433;-84
2021/03/18 13:41:41;;;;;;;8.32;7.32;;;;;;;8.37;47.27;93410.69;4829892;28;20059;-85
2021/03/18 13:44:41;;;;;;;;;;;;;;;;;;;;;
2021/03/18 13:47:16;;;;;;;9.73;7.85;;;;;;;8.01;46.48;93391.13;4930274;28;20046;-85
2021/03/18 13:49:48;;;;;;;8.68;7.78;;;;;;;7.98;47.32;93350.38;4935647;28;20521;-84
2021/03/18 13:52:41;;;;;;;9.77;7.13;;;;;;;8.48;46.97;93395.53;4912142;28;20496;-84
2021/03/18 13:55:38;;;;;;;8.77;6.95;;;;;;;8.43;45.96;93377.16;4922821;28;20051;-84
2021/03/18 13:58:36;;;;;;;8.77;6.90;;;;;;;7.99;45.69;93333.50;4902677;28;20042;-87
2021/03/18 14:01:11;;;;;;;8.07;7.07;;;;;;;8.28;44.86;93381.56;4884997;29;20695;-85
2021/03/18 14:03:42;;;;;;;10.68;8.00;;;;;;;8.15;45.37;93355.94;4891929;29;20693;-89
2021/03/18 14:06:08;;;;;;;11.63;8.30;;;;;;;8.13;45.44;93358.06;4841054;29;20089;-86
2021/03/18 14:08:40;;;;;;;9.85;8.50;;;;;;;8.50;45.72;93380.25;4871282;28;20386;-85
2021/03/18 14:11:20;;;;;;;10.48;7.50;;;;;;;8.48;45.39;93411.34;4938695;28;20368;-87
2021/03/18 14:13:45;;;;;;;9.23;7.68;;;;;;;8.10;46.07;93379.69;4940575;28;20080;-87